createdAt,value
2018-09-24T00:00:52.055Z,21.05
2018-09-24T00:15:50.434Z,22.90
2018-09-24T00:30:50.446Z,21.05
2018-09-24T00:45:51.078Z,21.60
2018-09-24T01:00:50.844Z,22.75
2018-09-24T01:15:52.833Z,22.73
2018-09-24T01:30:52.183Z,21.35
2018-09-24T01:45:51.177Z,21.85
2018-09-24T02:00:50.054Z,21.52
2018-09-24T02:15:52.086Z,20.15
2018-09-24T02:30:50.183Z,20.68
2018-09-24T02:45:50.244Z,21.48
2018-09-24T03:00:50.793Z,21.15
2018-09-24T03:15:59.164Z,22.85
2018-09-24T03:30:50.995Z,23.47
2018-09-24T03:45:50.575Z,22.65
2018-09-24T04:00:51.468Z,23.12
2018-09-24T04:15:55.937Z,23.83
2018-09-24T04:30:56.211Z,25.88
2018-09-24T04:45:55.970Z,25.62
2018-09-24T05:00:56.505Z,28.05
2018-09-24T05:30:56.611Z,25.30
2018-09-24T05:45:56.495Z,30.12
2018-09-24T06:00:55.757Z,25.90
2018-09-24T06:15:55.861Z,27.55
2018-09-24T06:30:56.311Z,28.02
2018-09-24T06:45:55.865Z,25.77
2018-09-24T07:00:58.059Z,28.40
2018-09-24T07:15:56.193Z,27.27
2018-09-24T07:30:56.005Z,27.90
2018-09-24T07:45:56.051Z,25.07
2018-09-24T08:00:56.524Z,24.30
2018-09-24T08:15:56.437Z,21.47
2018-09-24T08:31:00.308Z,23.80
2018-09-24T08:45:56.597Z,22.23
2018-09-24T09:00:55.724Z,21.67
2018-09-24T09:15:55.713Z,19.70
2018-09-24T09:30:55.847Z,18.67
2018-09-24T09:45:55.849Z,18.77
2018-09-24T10:00:56.263Z,16.00
2018-09-24T10:15:56.095Z,13.33
2018-09-24T10:30:56.100Z,9.70
2018-09-24T10:45:56.458Z,14.00
2018-09-24T11:15:56.493Z,15.27
2018-09-24T11:30:57.001Z,11.97
2018-09-24T11:45:56.372Z,13.50
2018-09-24T12:00:58.263Z,22.63
2018-09-24T12:15:55.808Z,19.00
2018-09-24T12:30:55.710Z,28.87
2018-09-24T12:45:56.040Z,24.72
2018-09-24T13:00:56.159Z,25.10
2018-09-24T13:15:56.304Z,17.37
2018-09-24T13:30:56.388Z,13.05
2018-09-24T13:45:56.157Z,14.68
2018-09-24T14:00:56.445Z,3.50
2018-09-24T14:15:55.712Z,2.72
2018-09-24T14:30:56.678Z,35.63
2018-09-24T14:45:58.720Z,2.40
2018-09-24T15:00:57.800Z,3.65
2018-09-24T15:15:54.776Z,2.45
2018-09-24T15:30:54.993Z,2.83
2018-09-24T15:45:54.730Z,7.62
2018-09-24T16:00:55.289Z,3.22
2018-09-24T16:15:57.185Z,4.33
2018-09-24T16:30:56.164Z,3.67
2018-09-24T16:45:56.187Z,7.15
2018-09-24T17:00:57.453Z,2.98
2018-09-24T17:15:56.511Z,2.67
2018-09-24T17:45:56.650Z,3.72
2018-09-24T18:00:55.922Z,4.30
2018-09-24T18:15:55.946Z,8.33
2018-09-24T18:30:55.905Z,8.63
2018-09-24T18:45:55.717Z,7.05
2018-09-24T19:00:58.218Z,7.65
2018-09-24T19:15:58.174Z,6.62
2018-09-24T19:30:57.703Z,7.65
2018-09-24T19:45:56.248Z,9.98
2018-09-24T20:00:56.492Z,8.60
2018-09-24T20:15:56.534Z,9.00
2018-09-24T20:30:58.725Z,4.50
2018-09-24T20:45:56.503Z,2.90
2018-09-24T21:00:55.837Z,3.30
2018-09-24T21:15:55.835Z,1.40
2018-09-24T21:30:55.827Z,1.82
2018-09-24T21:45:55.872Z,2.10
2018-09-24T22:00:58.193Z,2.45
2018-09-24T22:15:57.255Z,1.90
2018-09-24T22:30:58.454Z,2.65
2018-09-24T22:45:55.990Z,3.08
2018-09-24T23:00:56.377Z,4.15
2018-09-24T23:15:56.434Z,4.40
2018-09-24T23:30:56.491Z,4.40
2018-09-24T23:45:56.422Z,4.62
